createdAt,value
2023-05-20T00:00:28.802Z,100884.91
2023-05-20T00:02:00.608Z,100885.88
2023-05-20T00:03:32.485Z,100887.72
2023-05-20T00:05:04.645Z,100888.69
2023-05-20T00:06:36.827Z,100879.75
2023-05-20T00:08:09.727Z,100882.53
2023-05-20T00:09:41.545Z,100888.94
2023-05-20T00:11:13.391Z,100887.19
2023-05-20T00:12:45.207Z,100887.34
2023-05-20T00:14:17.033Z,100890.91
2023-05-20T00:15:48.834Z,100895.44
2023-05-20T00:17:20.689Z,100886.59
2023-05-20T00:18:52.513Z,100886.72
2023-05-20T00:20:24.754Z,100887.47
2023-05-20T00:21:58.183Z,100886.59
2023-05-20T00:23:30.217Z,100885.00
2023-05-20T00:25:02.266Z,100880.72
2023-05-20T00:26:34.147Z,100886.09
2023-05-20T00:28:06.685Z,100878.97
2023-05-20T00:29:39.403Z,100875.31
2023-05-20T00:31:11.312Z,100878.25
2023-05-20T00:32:43.225Z,100873.81
2023-05-20T00:34:15.508Z,100871.38
2023-05-20T00:35:47.356Z,100868.78
2023-05-20T00:37:19.184Z,100867.28
2023-05-20T00:38:51.548Z,100879.09
2023-05-20T00:40:24.979Z,100871.22
2023-05-20T00:42:00.637Z,100869.63
2023-05-20T00:43:32.439Z,100868.00
2023-05-20T00:45:04.663Z,100867.41
2023-05-20T00:46:37.109Z,100871.31
2023-05-20T00:48:09.938Z,100878.78
2023-05-20T00:49:42.561Z,100879.88
2023-05-20T00:51:14.832Z,100881.09
2023-05-20T00:52:48.450Z,100884.88
2023-05-20T00:54:21.189Z,100881.56
2023-05-20T00:55:53.017Z,100877.34
2023-05-20T00:57:25.234Z,100879.19
2023-05-20T00:58:58.051Z,100884.84
2023-05-20T01:00:29.861Z,100887.66
2023-05-20T01:02:06.033Z,100885.91
2023-05-20T01:03:38.322Z,100885.06
2023-05-20T01:05:10.383Z,100878.72
2023-05-20T01:06:42.262Z,100877.81
2023-05-20T01:08:14.294Z,100875.25
2023-05-20T01:09:46.410Z,100862.84
2023-05-20T01:11:26.356Z,100867.63
2023-05-20T01:13:01.911Z,100867.63
2023-05-20T01:14:39.726Z,100871.31
2023-05-20T01:16:12.149Z,100869.59
2023-05-20T01:17:47.269Z,100875.00
2023-05-20T01:19:36.529Z,100876.19
2023-05-20T01:21:12.201Z,100874.25
2023-05-20T01:22:53.882Z,100877.94
2023-05-20T01:24:25.797Z,100873.47
2023-05-20T01:25:57.725Z,100877.16
2023-05-20T01:27:30.519Z,100876.31
2023-05-20T01:29:04.717Z,100880.97
2023-05-20T01:30:44.585Z,100875.69
2023-05-20T01:32:23.307Z,100872.13
2023-05-20T01:33:58.675Z,100873.94
2023-05-20T01:35:30.655Z,100874.19
2023-05-20T01:37:04.765Z,100877.88
2023-05-20T01:38:38.250Z,100875.28
2023-05-20T01:40:14.284Z,100873.69
2023-05-20T01:41:47.769Z,100878.31
2023-05-20T01:43:21.080Z,100883.94
2023-05-20T01:44:52.900Z,100877.81
2023-05-20T01:46:24.796Z,100877.19
2023-05-20T01:47:57.645Z,100882.69
2023-05-20T01:49:30.095Z,100881.06
2023-05-20T01:51:02.005Z,100886.59
2023-05-20T01:52:33.960Z,100883.16
2023-05-20T01:54:05.940Z,100880.59
2023-05-20T01:55:37.947Z,100880.59
2023-05-20T01:57:10.069Z,100886.81
2023-05-20T01:58:41.982Z,100877.88
2023-05-20T02:00:14.264Z,100883.28
2023-05-20T02:01:46.419Z,100871.63
2023-05-20T02:03:20.887Z,100882.28
2023-05-20T02:04:54.450Z,100878.75
2023-05-20T02:06:26.317Z,100876.03
2023-05-20T02:07:59.912Z,100874.09
2023-05-20T02:09:31.718Z,100873.22
2023-05-20T02:11:03.530Z,100868.56
2023-05-20T02:12:35.360Z,100874.97
2023-05-20T02:14:07.286Z,100868.56
2023-05-20T02:15:42.456Z,100871.28
2023-05-20T02:17:16.739Z,100872.97
2023-05-20T02:18:48.981Z,100878.38
2023-05-20T02:20:22.472Z,100877.28
2023-05-20T02:21:54.278Z,100871.03
2023-05-20T02:23:26.340Z,100866.50
2023-05-20T02:24:58.134Z,100868.34
2023-05-20T02:26:30.194Z,100872.88
2023-05-20T02:28:05.819Z,100869.34
2023-05-20T02:29:37.695Z,100866.63
2023-05-20T02:31:09.516Z,100871.03
2023-05-20T02:32:41.698Z,100863.03
2023-05-20T02:34:14.298Z,100865.75
2023-05-20T02:35:46.288Z,100875.44
2023-05-20T02:37:19.452Z,100873.50
2023-05-20T02:38:51.434Z,100872.75
2023-05-20T02:40:23.233Z,100869.34
2023-05-20T02:41:55.028Z,100868.44
2023-05-20T02:43:26.861Z,100870.41
2023-05-20T02:44:59.086Z,100874.97
2023-05-20T02:46:31.617Z,100874.97
2023-05-20T02:48:04.907Z,100867.81
2023-05-20T02:49:37.317Z,100866.09
2023-05-20T02:51:09.186Z,100863.41
2023-05-20T02:52:42.791Z,100853.59
2023-05-20T02:54:14.854Z,100848.31
2023-05-20T02:55:50.117Z,100852.84
2023-05-20T02:57:22.868Z,100851.22
2023-05-20T02:58:54.953Z,100849.66
2023-05-20T03:00:28.882Z,100843.50
2023-05-20T03:02:00.761Z,100848.97
2023-05-20T03:03:33.635Z,100850.09
2023-05-20T03:05:05.841Z,100836.94
2023-05-20T03:06:38.381Z,100838.78
2023-05-20T03:08:11.076Z,100837.16
2023-05-20T03:09:42.982Z,100829.44
2023-05-20T03:11:14.823Z,100823.28
2023-05-20T03:12:46.868Z,100822.66
2023-05-20T03:14:18.671Z,100820.19
2023-05-20T03:15:50.703Z,100815.84
2023-05-20T03:17:22.984Z,100818.75
2023-05-20T03:18:55.044Z,100813.63
2023-05-20T03:20:29.278Z,100824.50
2023-05-20T03:22:01.639Z,100828.28
2023-05-20T03:23:33.478Z,100830.25
2023-05-20T03:25:06.349Z,100833.03
2023-05-20T03:26:43.259Z,100834.25
2023-05-20T03:28:15.228Z,100838.88
2023-05-20T03:29:48.483Z,100844.38
2023-05-20T03:31:21.260Z,100838.00
2023-05-20T03:32:57.951Z,100839.94
2023-05-20T03:34:30.533Z,100839.09
2023-05-20T03:36:02.615Z,100844.38
2023-05-20T03:37:34.474Z,100839.00
2023-05-20T03:39:06.323Z,100849.78
2023-05-20T03:40:38.700Z,100840.72
2023-05-20T03:42:11.004Z,100842.41
2023-05-20T03:43:42.903Z,100845.78
2023-05-20T03:45:15.718Z,100846.50
2023-05-20T03:46:57.118Z,100841.75
2023-05-20T03:48:29.085Z,100843.28
2023-05-20T03:50:00.969Z,100844.75
2023-05-20T03:51:34.617Z,100848.13
2023-05-20T03:53:11.784Z,100850.59
2023-05-20T03:54:46.037Z,100844.00
2023-05-20T03:56:17.866Z,100857.25
2023-05-20T03:57:49.777Z,100851.50
2023-05-20T03:59:22.583Z,100858.28
2023-05-20T04:00:54.420Z,100857.97
2023-05-20T04:02:26.397Z,100858.59
2023-05-20T04:03:58.419Z,100849.28
2023-05-20T04:05:30.316Z,100850.78
2023-05-20T04:07:05.152Z,100850.53
2023-05-20T04:08:37.038Z,100850.94
2023-05-20T04:10:09.633Z,100848.88
2023-05-20T04:11:41.479Z,100843.25
2023-05-20T04:13:13.403Z,100845.59
2023-05-20T04:14:46.540Z,100845.25
2023-05-20T04:16:18.503Z,100845.00
2023-05-20T04:17:50.707Z,100841.94
2023-05-20T04:19:24.461Z,100844.53
2023-05-20T04:20:56.756Z,100837.06
2023-05-20T04:22:28.744Z,100840.38
2023-05-20T04:24:00.789Z,100845.56
2023-05-20T04:25:33.470Z,100854.28
2023-05-20T04:27:06.224Z,100846.94
2023-05-20T04:28:39.156Z,100853.94
2023-05-20T04:30:12.053Z,100858.13
2023-05-20T04:31:47.280Z,100850.72
2023-05-20T04:33:19.226Z,100852.34
2023-05-20T04:34:51.284Z,100853.94
2023-05-20T04:36:28.947Z,100854.56
2023-05-20T04:38:02.297Z,100857.91
2023-05-20T04:39:34.178Z,100850.56
2023-05-20T04:41:07.331Z,100851.19
2023-05-20T04:42:39.889Z,100851.81
2023-05-20T04:44:11.728Z,100848.13
2023-05-20T04:45:43.755Z,100858.56
2023-05-20T04:47:17.407Z,100857.34
2023-05-20T04:48:49.247Z,100860.78
2023-05-20T04:50:22.086Z,100862.28
2023-05-20T04:51:55.626Z,100862.03
2023-05-20T04:53:27.472Z,100860.03
2023-05-20T04:55:02.051Z,100859.81
2023-05-20T04:56:34.003Z,100854.28
2023-05-20T04:58:06.042Z,100852.34
2023-05-20T04:59:38.015Z,100850.25
2023-05-20T05:01:09.907Z,100853.66
2023-05-20T05:02:42.330Z,100847.16
2023-05-20T05:04:14.519Z,100845.94
2023-05-20T05:05:46.432Z,100839.41
2023-05-20T05:07:18.280Z,100845.56
2023-05-20T05:08:50.132Z,100842.50
2023-05-20T05:10:23.562Z,100845.81
2023-05-20T05:11:55.664Z,100844.56
2023-05-20T05:13:28.069Z,100848.88
2023-05-20T05:15:00.499Z,100850.38
2023-05-20T05:16:34.129Z,100850.09
2023-05-20T05:18:06.115Z,100839.91
2023-05-20T05:19:39.444Z,100848.72
2023-05-20T05:21:11.840Z,100848.38
2023-05-20T05:22:44.509Z,100844.44
2023-05-20T05:24:16.549Z,100837.16
2023-05-20T05:25:52.390Z,100850.59
2023-05-20T05:27:24.332Z,100839.63
2023-05-20T05:28:56.278Z,100834.81
2023-05-20T05:30:28.399Z,100839.97
2023-05-20T05:32:00.313Z,100844.16
2023-05-20T05:33:32.303Z,100844.78
2023-05-20T05:35:06.725Z,100848.06
2023-05-20T05:36:41.398Z,100847.97
2023-05-20T05:38:13.285Z,100846.72
2023-05-20T05:39:45.151Z,100846.22
2023-05-20T05:41:17.058Z,100848.06
2023-05-20T05:42:48.952Z,100846.94
2023-05-20T05:44:20.860Z,100853.97
2023-05-20T05:45:52.902Z,100851.84
2023-05-20T05:47:29.882Z,100849.00
2023-05-20T05:49:01.795Z,100853.31
2023-05-20T05:50:33.671Z,100862.03
2023-05-20T05:52:05.829Z,100857.47
2023-05-20T05:53:37.953Z,100853.75
2023-05-20T05:55:11.050Z,100856.22
2023-05-20T05:56:43.079Z,100853.25
2023-05-20T05:58:15.038Z,100846.88
2023-05-20T05:59:47.124Z,100846.47
2023-05-20T06:01:19.447Z,100850.03
2023-05-20T06:02:51.608Z,100842.66
2023-05-20T06:04:35.915Z,100838.94
2023-05-20T06:06:08.021Z,100842.50
2023-05-20T06:07:40.218Z,100835.22
2023-05-20T06:09:12.078Z,100838.84
2023-05-20T06:10:49.273Z,100846.06
2023-05-20T06:12:33.603Z,100844.94
2023-05-20T06:14:05.448Z,100837.69
2023-05-20T06:15:37.389Z,100840.38
2023-05-20T06:17:09.284Z,100832.53
2023-05-20T06:18:41.265Z,100833.25
2023-05-20T06:20:13.801Z,100834.13
2023-05-20T06:21:45.643Z,100835.88
2023-05-20T06:23:17.534Z,100833.00
2023-05-20T06:25:02.665Z,100837.16
2023-05-20T06:26:35.823Z,100838.75
2023-05-20T06:28:08.540Z,100840.34
2023-05-20T06:29:43.093Z,100833.81
2023-05-20T06:31:15.954Z,100835.13
2023-05-20T06:32:48.489Z,100834.75
2023-05-20T06:34:20.992Z,100845.50
2023-05-20T06:35:53.692Z,100839.31
2023-05-20T06:37:28.501Z,100832.34
2023-05-20T06:39:00.640Z,100835.97
2023-05-20T06:40:32.528Z,100832.63
2023-05-20T06:42:04.656Z,100832.50
2023-05-20T06:43:40.942Z,100830.97
2023-05-20T06:45:35.422Z,100825.44
2023-05-20T06:47:24.542Z,100829.06
2023-05-20T06:48:57.384Z,100824.78
2023-05-20T06:50:29.454Z,100833.09
2023-05-20T06:52:01.333Z,100831.41
2023-05-20T06:53:34.046Z,100820.88
2023-05-20T06:55:06.422Z,100830.47
2023-05-20T06:56:39.908Z,100818.16
2023-05-20T06:58:12.017Z,100817.75
2023-05-20T06:59:49.973Z,100814.47
2023-05-20T07:01:26.095Z,100822.91
2023-05-20T07:02:58.194Z,100817.78
2023-05-20T07:04:30.358Z,100811.06
2023-05-20T07:06:02.941Z,100815.19
2023-05-20T07:07:35.017Z,100814.78
2023-05-20T07:09:07.298Z,100812.34
2023-05-20T07:10:39.236Z,100812.75
2023-05-20T07:12:11.526Z,100810.63
2023-05-20T07:13:43.396Z,100804.88
2023-05-20T07:15:15.327Z,100801.88
2023-05-20T07:16:48.487Z,100809.72
2023-05-20T07:18:21.771Z,100802.06
2023-05-20T07:19:57.997Z,100795.19
2023-05-20T07:21:29.979Z,100803.75
2023-05-20T07:23:10.625Z,100797.63
2023-05-20T07:24:47.091Z,100791.16
2023-05-20T07:26:18.988Z,100790.16
2023-05-20T07:27:50.911Z,100795.47
2023-05-20T07:29:22.807Z,100798.72
2023-05-20T07:30:56.226Z,100799.13
2023-05-20T07:32:33.317Z,100800.56
2023-05-20T07:34:05.320Z,100795.69
2023-05-20T07:35:37.338Z,100789.13
2023-05-20T07:37:10.285Z,100792.53
2023-05-20T07:38:53.226Z,100794.94
2023-05-20T07:40:37.015Z,100785.34
2023-05-20T07:42:09.074Z,100794.19
2023-05-20T07:43:42.950Z,100800.22
2023-05-20T07:45:14.842Z,100793.47
2023-05-20T07:46:46.688Z,100802.00
2023-05-20T07:48:18.654Z,100796.16
2023-05-20T07:49:50.668Z,100798.41
2023-05-20T07:51:22.554Z,100796.09
2023-05-20T07:52:56.311Z,100790.75
2023-05-20T07:54:30.878Z,100795.50
2023-05-20T07:56:02.964Z,100790.00
2023-05-20T07:57:35.120Z,100781.06
2023-05-20T07:59:07.087Z,100790.84
2023-05-20T08:00:45.282Z,100788.63
2023-05-20T08:02:17.979Z,100786.69
2023-05-20T08:03:50.363Z,100792.75
2023-05-20T08:05:25.694Z,100798.69
2023-05-20T08:06:57.626Z,100797.03
2023-05-20T08:08:44.180Z,100789.97
2023-05-20T08:10:23.612Z,100794.94
2023-05-20T08:11:55.958Z,100795.34
2023-05-20T08:13:28.070Z,100787.53
2023-05-20T08:15:00.001Z,100791.97
2023-05-20T08:16:32.082Z,100783.31
2023-05-20T08:18:04.626Z,100786.25
2023-05-20T08:19:36.641Z,100780.00
2023-05-20T08:21:08.584Z,100777.88
2023-05-20T08:22:41.085Z,100776.59
2023-05-20T08:24:12.917Z,100772.25
2023-05-20T08:25:47.066Z,100769.06
2023-05-20T08:27:19.472Z,100763.84
2023-05-20T08:28:51.411Z,100761.31
2023-05-20T08:30:24.542Z,100754.41
2023-05-20T08:31:56.434Z,100761.28
2023-05-20T08:33:29.690Z,100757.88
2023-05-20T08:35:05.525Z,100752.06
2023-05-20T08:36:37.408Z,100748.66
2023-05-20T08:38:09.745Z,100750.34
2023-05-20T08:39:41.622Z,100741.38
2023-05-20T08:41:13.774Z,100732.44
2023-05-20T08:42:49.508Z,100728.22
2023-05-20T08:44:24.674Z,100730.16
2023-05-20T08:45:56.750Z,100728.63
2023-05-20T08:47:31.046Z,100732.81
2023-05-20T08:49:03.054Z,100728.50
2023-05-20T08:50:34.940Z,100737.63
2023-05-20T08:52:06.929Z,100728.47
2023-05-20T08:53:39.899Z,100741.78
2023-05-20T08:55:16.676Z,100733.44
2023-05-20T08:56:48.543Z,100730.16
2023-05-20T08:58:21.126Z,100733.63
2023-05-20T08:59:53.033Z,100735.47
2023-05-20T09:01:28.475Z,100737.34
2023-05-20T09:03:01.237Z,100731.56
2023-05-20T09:04:33.540Z,100731.63
2023-05-20T09:06:08.157Z,100727.50
2023-05-20T09:07:40.680Z,100733.28
2023-05-20T09:09:16.042Z,100725.00
2023-05-20T09:10:48.128Z,100718.94
2023-05-20T09:12:21.552Z,100724.13
2023-05-20T09:13:53.681Z,100718.88
2023-05-20T09:15:25.505Z,100723.88
2023-05-20T09:16:57.564Z,100725.44
2023-05-20T09:18:30.277Z,100722.81
2023-05-20T09:20:02.383Z,100717.81
2023-05-20T09:21:35.757Z,100726.31
2023-05-20T09:23:10.929Z,100716.66
2023-05-20T09:24:43.062Z,100718.16
2023-05-20T09:26:15.090Z,100710.53
2023-05-20T09:27:46.938Z,100719.63
2023-05-20T09:29:21.902Z,100714.97
2023-05-20T09:31:00.336Z,100716.03
2023-05-20T09:32:32.375Z,100713.09
2023-05-20T09:34:04.855Z,100713.94
2023-05-20T09:35:38.063Z,100712.91
2023-05-20T09:37:10.329Z,100708.91
2023-05-20T09:38:42.975Z,100726.91
2023-05-20T09:40:15.794Z,100718.66
2023-05-20T09:42:04.030Z,100710.75
2023-05-20T09:43:36.720Z,100712.16
2023-05-20T09:45:12.049Z,100701.91
2023-05-20T09:46:46.136Z,100704.59
2023-05-20T09:48:18.321Z,100703.84
2023-05-20T09:49:50.680Z,100700.19
2023-05-20T09:51:24.266Z,100710.69
2023-05-20T09:52:56.414Z,100691.41
2023-05-20T09:54:30.096Z,100695.41
2023-05-20T09:56:02.412Z,100695.81
2023-05-20T09:57:35.259Z,100688.97
2023-05-20T09:59:08.068Z,100676.28
2023-05-20T10:00:39.990Z,100682.56
2023-05-20T10:02:12.215Z,100695.81
2023-05-20T10:03:45.530Z,100668.50
2023-05-20T10:05:24.338Z,100674.00
2023-05-20T10:07:41.688Z,100677.88
2023-05-20T10:09:32.642Z,100673.91
2023-05-20T10:11:28.381Z,100672.56
2023-05-20T10:13:21.941Z,100672.41
2023-05-20T10:15:17.996Z,100658.00
2023-05-20T10:17:13.090Z,100663.69
2023-05-20T10:18:44.935Z,100651.66
2023-05-20T10:20:17.010Z,100658.69
2023-05-20T10:22:06.302Z,100658.84
2023-05-20T10:23:38.263Z,100659.97
2023-05-20T10:25:23.825Z,100658.69
2023-05-20T10:26:55.882Z,100651.00
2023-05-20T10:28:33.218Z,100644.84
2023-05-20T10:30:16.808Z,100642.09
2023-05-20T10:31:50.747Z,100653.34
2023-05-20T10:33:22.965Z,100652.13
2023-05-20T10:35:05.545Z,100650.31
2023-05-20T10:36:38.168Z,100662.03
2023-05-20T10:38:12.231Z,100654.84
2023-05-20T10:39:44.613Z,100650.59
2023-05-20T10:41:21.795Z,100648.88
2023-05-20T10:42:53.902Z,100649.53
2023-05-20T10:44:25.839Z,100653.13
2023-05-20T10:45:59.559Z,100648.09
2023-05-20T10:47:32.383Z,100633.19
2023-05-20T10:49:05.237Z,100646.34
2023-05-20T10:50:38.919Z,100637.31
2023-05-20T10:52:11.600Z,100646.47
2023-05-20T10:53:46.965Z,100648.38
2023-05-20T10:55:19.779Z,100641.88
2023-05-20T10:56:53.870Z,100635.16
2023-05-20T10:58:25.885Z,100641.97
2023-05-20T10:59:58.233Z,100627.44
2023-05-20T11:01:30.346Z,100636.19
2023-05-20T11:03:02.852Z,100628.84
2023-05-20T11:04:35.281Z,100635.84
2023-05-20T11:06:16.049Z,100624.84
2023-05-20T11:07:49.405Z,100621.31
2023-05-20T11:09:21.407Z,100607.13
2023-05-20T11:10:53.280Z,100620.00
2023-05-20T11:12:27.673Z,100620.19
2023-05-20T11:14:00.870Z,100620.88
2023-05-20T11:15:33.727Z,100610.09
2023-05-20T11:17:08.074Z,100616.91
2023-05-20T11:18:40.074Z,100611.66
2023-05-20T11:20:14.836Z,100601.53
2023-05-20T11:21:47.657Z,100610.28
2023-05-20T11:23:19.528Z,100601.66
2023-05-20T11:24:51.454Z,100608.44
2023-05-20T11:26:23.553Z,100608.03
2023-05-20T11:27:55.464Z,100595.16
2023-05-20T11:29:29.281Z,100612.56
2023-05-20T11:31:01.438Z,100597.53
2023-05-20T11:32:33.347Z,100611.75
2023-05-20T11:34:05.325Z,100604.13
2023-05-20T11:35:37.185Z,100598.63
2023-05-20T11:37:10.518Z,100595.66
2023-05-20T11:38:43.109Z,100596.50
2023-05-20T11:40:15.432Z,100600.97
2023-05-20T11:41:47.471Z,100588.28
2023-05-20T11:43:20.458Z,100594.63
2023-05-20T11:44:52.304Z,100591.69
2023-05-20T11:46:24.492Z,100584.69
2023-05-20T11:48:06.224Z,100586.81
2023-05-20T11:49:41.315Z,100591.03
2023-05-20T11:51:13.575Z,100584.28
2023-05-20T11:52:45.435Z,100575.16
2023-05-20T11:54:17.267Z,100571.75
2023-05-20T11:55:51.413Z,100575.34
2023-05-20T11:57:23.626Z,100565.41
2023-05-20T11:59:00.557Z,100571.16
2023-05-20T12:00:49.346Z,100556.31
2023-05-20T12:02:22.332Z,100562.50
2023-05-20T12:03:54.588Z,100563.94
2023-05-20T12:05:26.492Z,100558.91
2023-05-20T12:06:58.349Z,100560.19
2023-05-20T12:08:30.402Z,100555.56
2023-05-20T12:10:03.671Z,100563.00
2023-05-20T12:11:37.094Z,100557.69
2023-05-20T12:13:09.236Z,100560.03
2023-05-20T12:14:41.129Z,100560.03
2023-05-20T12:16:13.053Z,100546.91
2023-05-20T12:17:50.395Z,100546.25
2023-05-20T12:19:22.437Z,100550.09
2023-05-20T12:20:54.469Z,100553.91
2023-05-20T12:22:26.306Z,100550.31
2023-05-20T12:23:59.967Z,100541.16
2023-05-20T12:25:32.270Z,100542.47
2023-05-20T12:27:04.364Z,100544.78
2023-05-20T12:28:36.453Z,100530.78
2023-05-20T12:30:10.108Z,100526.06
2023-05-20T12:31:42.031Z,100522.91
2023-05-20T12:33:13.906Z,100517.16
2023-05-20T12:34:45.826Z,100520.13
2023-05-20T12:36:17.781Z,100512.28
2023-05-20T12:37:49.605Z,100506.78
2023-05-20T12:39:21.498Z,100511.03
2023-05-20T12:40:53.378Z,100516.31
2023-05-20T12:42:25.270Z,100511.09
2023-05-20T12:43:57.117Z,100509.41
2023-05-20T12:45:29.031Z,100500.94
2023-05-20T12:47:01.219Z,100489.91
2023-05-20T12:48:33.164Z,100486.31
2023-05-20T12:50:05.450Z,100490.13
2023-05-20T12:51:38.040Z,100485.88
2023-05-20T12:53:09.916Z,100485.03
2023-05-20T12:54:41.763Z,100485.28
2023-05-20T12:56:13.645Z,100503.69
2023-05-20T12:57:46.623Z,100498.16
2023-05-20T12:59:18.478Z,100490.13
2023-05-20T13:00:50.415Z,100495.41
2023-05-20T13:02:22.339Z,100488.22
2023-05-20T13:03:55.650Z,100496.72
2023-05-20T13:05:27.845Z,100490.75
2023-05-20T13:06:59.802Z,100491.81
2023-05-20T13:08:31.698Z,100492.03
2023-05-20T13:10:03.982Z,100485.66
2023-05-20T13:11:35.868Z,100493.25
2023-05-20T13:13:07.756Z,100478.19
2023-05-20T13:14:39.560Z,100471.63
2023-05-20T13:16:12.185Z,100469.50
2023-05-20T13:17:44.205Z,100464.41
2023-05-20T13:19:16.192Z,100468.66
2023-05-20T13:20:48.073Z,100470.34
2023-05-20T13:22:19.934Z,100478.41
2023-05-20T13:23:51.781Z,100469.09
2023-05-20T13:25:23.709Z,100469.38
2023-05-20T13:26:56.201Z,100465.78
2023-05-20T13:28:28.400Z,100464.69
2023-05-20T13:30:02.017Z,100458.56
2023-05-20T13:31:34.554Z,100461.94
2023-05-20T13:33:06.834Z,100451.75
2023-05-20T13:34:39.188Z,100456.84
2023-05-20T13:36:11.327Z,100459.34
2023-05-20T13:37:43.244Z,100461.66
2023-05-20T13:39:16.247Z,100464.78
2023-05-20T13:40:49.777Z,100457.97
2023-05-20T13:42:21.730Z,100452.88
2023-05-20T13:43:53.828Z,100457.06
2023-05-20T13:45:25.864Z,100459.41
2023-05-20T13:46:57.767Z,100443.25
2023-05-20T13:48:29.711Z,100450.66
2023-05-20T13:50:03.122Z,100446.50
2023-05-20T13:51:35.450Z,100442.50
2023-05-20T13:53:12.562Z,100441.84
2023-05-20T13:54:46.918Z,100436.81
2023-05-20T13:56:18.970Z,100454.22
2023-05-20T13:57:53.443Z,100440.25
2023-05-20T13:59:25.295Z,100436.88
2023-05-20T14:00:57.371Z,100435.22
2023-05-20T14:02:29.300Z,100441.59
2023-05-20T14:04:01.328Z,100447.53
2023-05-20T14:05:33.762Z,100436.53
2023-05-20T14:07:08.576Z,100439.25
2023-05-20T14:08:41.579Z,100435.66
2023-05-20T14:10:13.473Z,100427.19
2023-05-20T14:11:45.370Z,100424.44
2023-05-20T14:13:17.236Z,100429.53
2023-05-20T14:14:49.069Z,100424.66
2023-05-20T14:16:20.994Z,100429.72
2023-05-20T14:17:52.972Z,100425.06
2023-05-20T14:19:24.905Z,100430.16
2023-05-20T14:20:56.901Z,100421.47
2023-05-20T14:22:28.755Z,100419.16
2023-05-20T14:24:01.542Z,100411.28
2023-05-20T14:25:33.510Z,100407.69
2023-05-20T14:27:05.674Z,100415.72
2023-05-20T14:28:37.622Z,100403.84
2023-05-20T14:30:10.010Z,100406.81
2023-05-20T14:31:41.927Z,100403.63
2023-05-20T14:33:13.874Z,100400.88
2023-05-20T14:34:45.748Z,100394.47
2023-05-20T14:36:17.771Z,100396.16
2023-05-20T14:37:49.642Z,100406.25
2023-05-20T14:39:21.567Z,100399.03
2023-05-20T14:40:53.440Z,100399.03
2023-05-20T14:42:25.357Z,100400.50
2023-05-20T14:43:57.204Z,100399.81
2023-05-20T14:45:29.080Z,100401.69
2023-05-20T14:47:01.081Z,100403.34
2023-05-20T14:48:32.966Z,100407.75
2023-05-20T14:50:05.049Z,100398.41
2023-05-20T14:51:36.897Z,100400.06
2023-05-20T14:53:08.898Z,100398.78
2023-05-20T14:54:40.767Z,100394.94
2023-05-20T14:56:12.673Z,100396.41
2023-05-20T14:57:44.560Z,100389.59
2023-05-20T14:59:16.381Z,100395.53
2023-05-20T15:00:48.335Z,100389.38
2023-05-20T15:02:20.536Z,100388.31
2023-05-20T15:03:52.477Z,100394.66
2023-05-20T15:05:24.697Z,100382.63
2023-05-20T15:06:56.706Z,100386.22
2023-05-20T15:08:28.642Z,100385.16
2023-05-20T15:10:00.588Z,100379.66
2023-05-20T15:11:32.432Z,100381.34
2023-05-20T15:13:04.347Z,100374.19
2023-05-20T15:14:36.297Z,100367.84
2023-05-20T15:16:08.245Z,100383.47
2023-05-20T15:17:40.154Z,100384.72
2023-05-20T15:19:15.300Z,100374.97
2023-05-20T15:20:47.252Z,100377.91
2023-05-20T15:22:19.111Z,100365.03
2023-05-20T15:23:51.000Z,100365.63
2023-05-20T15:25:22.888Z,100363.91
2023-05-20T15:26:55.276Z,100354.66
2023-05-20T15:28:27.135Z,100362.69
2023-05-20T15:29:58.971Z,100366.47
2023-05-20T15:31:30.968Z,100361.19
2023-05-20T15:33:03.439Z,100361.19
2023-05-20T15:34:35.823Z,100348.91
2023-05-20T15:36:08.013Z,100347.22
2023-05-20T15:37:39.854Z,100355.00
2023-05-20T15:39:12.188Z,100350.53
2023-05-20T15:40:44.009Z,100351.78
2023-05-20T15:42:18.663Z,100349.91
2023-05-20T15:43:51.427Z,100355.19
2023-05-20T15:45:23.324Z,100356.47
2023-05-20T15:46:55.312Z,100347.66
2023-05-20T15:48:27.181Z,100349.38
2023-05-20T15:49:59.367Z,100353.00
2023-05-20T15:51:31.547Z,100340.81
2023-05-20T15:53:06.820Z,100346.16
2023-05-20T15:54:38.665Z,100351.28
2023-05-20T15:56:12.616Z,100347.28
2023-05-20T15:57:44.513Z,100346.69
2023-05-20T15:59:16.488Z,100349.22
2023-05-20T16:00:49.915Z,100356.22
2023-05-20T16:02:21.852Z,100365.31
2023-05-20T16:03:56.904Z,100348.19
2023-05-20T16:05:29.711Z,100353.88
2023-05-20T16:07:01.627Z,100355.34
2023-05-20T16:08:36.110Z,100349.63
2023-05-20T16:10:08.729Z,100350.22
2023-05-20T16:11:40.566Z,100358.00
2023-05-20T16:13:12.442Z,100347.84
2023-05-20T16:14:44.939Z,100353.94
2023-05-20T16:16:17.079Z,100350.56
2023-05-20T16:17:48.993Z,100349.47
2023-05-20T16:19:20.903Z,100351.31
2023-05-20T16:20:52.810Z,100352.13
2023-05-20T16:22:24.670Z,100358.44
2023-05-20T16:23:56.522Z,100358.19
2023-05-20T16:25:28.385Z,100354.13
2023-05-20T16:27:00.256Z,100361.09
2023-05-20T16:28:32.105Z,100363.84
2023-05-20T16:30:07.570Z,100363.00
2023-05-20T16:31:39.535Z,100367.25
2023-05-20T16:33:13.402Z,100357.94
2023-05-20T16:34:45.493Z,100367.28
2023-05-20T16:36:17.581Z,100365.38
2023-05-20T16:37:49.447Z,100357.81
2023-05-20T16:39:21.304Z,100351.91
2023-05-20T16:40:53.175Z,100352.97
2023-05-20T16:42:25.020Z,100358.50
2023-05-20T16:43:56.890Z,100347.16
2023-05-20T16:45:28.804Z,100352.28
2023-05-20T16:47:00.924Z,100343.03
2023-05-20T16:48:33.321Z,100353.84
2023-05-20T16:50:05.731Z,100353.69
2023-05-20T16:51:37.587Z,100351.16
2023-05-20T16:53:09.660Z,100350.56
2023-05-20T16:54:41.544Z,100348.66
2023-05-20T16:56:13.391Z,100357.13
2023-05-20T16:57:45.535Z,100352.94
2023-05-20T16:59:18.875Z,100356.94
2023-05-20T17:00:50.753Z,100360.28
2023-05-20T17:02:22.629Z,100356.06
2023-05-20T17:03:54.888Z,100353.88
2023-05-20T17:05:26.833Z,100357.19
2023-05-20T17:06:58.691Z,100351.84
2023-05-20T17:08:30.974Z,100361.50
2023-05-20T17:10:02.847Z,100357.63
2023-05-20T17:11:34.735Z,100361.75
2023-05-20T17:13:06.755Z,100357.16
2023-05-20T17:14:38.622Z,100363.38
2023-05-20T17:16:12.250Z,100362.25
2023-05-20T17:17:44.247Z,100357.50
2023-05-20T17:19:16.327Z,100361.16
2023-05-20T17:20:48.210Z,100357.22
2023-05-20T17:22:20.054Z,100368.50
2023-05-20T17:23:52.054Z,100370.91
2023-05-20T17:25:23.944Z,100374.81
2023-05-20T17:26:56.415Z,100373.59
2023-05-20T17:28:28.247Z,100371.63
2023-05-20T17:30:00.149Z,100370.69
2023-05-20T17:31:32.102Z,100369.94
2023-05-20T17:33:04.006Z,100376.81
2023-05-20T17:34:35.965Z,100368.25
2023-05-20T17:36:08.020Z,100371.53
2023-05-20T17:37:40.136Z,100377.13
2023-05-20T17:39:12.649Z,100365.25
2023-05-20T17:40:44.531Z,100367.88
2023-05-20T17:42:16.411Z,100380.78
2023-05-20T17:43:48.245Z,100380.03